Terminal Aerodrome Forecast
Issued by NWS North Platte, NE

Home | Current Version | Previous Version | Text Only | Print | Product List | Glossary Off
Versions: 1 2 3 4 5 6 7 8 9 10 11

561
FTUS43 KLBF 221141
TAFVTN
TAF
KVTN 221141Z 2212/2312 VRB04KT 5SM BR SCT250
     FM221300 VRB04KT P6SM BKN250
     FM221800 11012G18KT P6SM SCT200
     FM230000 13006KT P6SM SCT200=

USA.gov is the U.S. government's official web portal to all federal, state and local government web resources and services.